Time;durP1;ratioP1;P1;durP2;ratioP2;P2;SDS_P1;SDS_P2;PMS_P1;PMS_P2;Temp;Humidity;BMP_temperature;BMP_pressure;BME280_temperature;BME280_humidity;BME280_pressure;Samples;Min_cycle;Max_cycle;Signal;HPM_P1;HPM_P2
2021/03/15 00:02:01;;;;;;;6.78;4.10;;;;;;;;;;5013900;28;20049;-80
2021/03/15 00:04:27;;;;;;;6.65;3.90;;;;;;;;;;5014232;28;20042;-80
2021/03/15 00:06:54;;;;;;;6.05;3.65;;;;;;;;;;5017579;28;20050;-81
2021/03/15 00:09:20;;;;;;;5.55;3.92;;;;;;;;;;5017325;28;20042;-81
2021/03/15 00:11:46;;;;;;;6.55;4.40;;;;;;;;;;5015964;28;20042;-80
2021/03/15 00:14:13;;;;;;;6.80;4.30;;;;;;;;;;5016793;28;20045;-81
2021/03/15 00:16:39;;;;;;;10.02;4.90;;;;;;;;;;5017147;28;20041;-80
2021/03/15 00:19:05;;;;;;;7.78;4.38;;;;;;;;;;5017111;28;20073;-79
2021/03/15 00:21:31;;;;;;;6.28;4.25;;;;;;;;;;5017101;28;20065;-80
2021/03/15 00:23:57;;;;;;;6.28;4.05;;;;;;;;;;5016685;28;20061;-80
2021/03/15 00:26:23;;;;;;;6.45;3.83;;;;;;;;;;5016462;28;20108;-80
2021/03/15 00:28:48;;;;;;;5.60;4.10;;;;;;;;;;5017343;28;20061;-80
2021/03/15 00:31:15;;;;;;;5.25;3.60;;;;;;;;;;5016504;28;20042;-80
2021/03/15 00:33:41;;;;;;;6.18;4.15;;;;;;;;;;5016846;28;20042;-81
2021/03/15 00:36:08;;;;;;;5.20;3.45;;;;;;;;;;5013949;28;20738;-81
2021/03/15 00:38:34;;;;;;;6.38;3.80;;;;;;;;;;5016974;28;20058;-81
2021/03/15 00:41:01;;;;;;;6.32;4.00;;;;;;;;;;5016556;28;20045;-80
2021/03/15 00:43:27;;;;;;;6.30;4.30;;;;;;;;;;5013833;28;20436;-80
2021/03/15 00:45:53;;;;;;;7.43;4.00;;;;;;;;;;5016449;28;20092;-80
2021/03/15 00:48:20;;;;;;;5.50;3.83;;;;;;;;;;5016381;28;20046;-80
2021/03/15 00:50:46;;;;;;;7.30;3.97;;;;;;;;;;5016364;28;20486;-80
2021/03/15 00:53:12;;;;;;;8.07;4.85;;;;;;;;;;5016646;28;20057;-79
2021/03/15 00:55:39;;;;;;;7.90;4.15;;;;;;;;;;5016469;28;20395;-80
2021/03/15 00:58:05;;;;;;;6.47;3.70;;;;;;;;;;5015942;28;20065;-80
2021/03/15 01:00:33;;;;;;;7.75;4.60;;;;;;;;;;4998451;28;20053;-80
2021/03/15 01:03:00;;;;;;;4.82;3.55;;;;;;;;;;5015811;28;20121;-80
2021/03/15 01:05:34;;;;;;;6.38;3.55;;;;;;;;;;5016011;28;20101;-80
2021/03/15 01:08:00;;;;;;;5.82;3.97;;;;;;;;;;5016163;28;20088;-79
2021/03/15 01:10:29;;;;;;;8.27;4.63;;;;;;;;;;5016236;28;20041;-80
2021/03/15 01:12:55;;;;;;;8.00;4.13;;;;;;;;;;5016485;28;20394;-80
2021/03/15 01:15:21;;;;;;;7.88;4.75;;;;;;;;;;5016209;28;20049;-80
2021/03/15 01:17:48;;;;;;;10.02;4.53;;;;;;;;;;5013166;28;20042;-81
2021/03/15 01:20:15;;;;;;;9.25;4.32;;;;;;;;;;5016596;28;20073;-80
2021/03/15 01:22:41;;;;;;;7.82;4.53;;;;;;;;;;5016046;28;20038;-80
2021/03/15 01:25:08;;;;;;;6.80;4.05;;;;;;;;;;5012950;28;20046;-80
2021/03/15 01:27:35;;;;;;;8.00;4.72;;;;;;;;;;5016559;28;20053;-80
2021/03/15 01:30:01;;;;;;;7.75;4.47;;;;;;;;;;4998056;28;20042;-80
2021/03/15 01:32:27;;;;;;;7.82;4.47;;;;;;;;;;5016210;28;20042;-80
2021/03/15 01:34:53;;;;;;;6.65;4.22;;;;;;;;;;5015746;28;20163;-80
2021/03/15 01:37:19;;;;;;;7.18;4.30;;;;;;;;;;5015671;28;20764;-80
2021/03/15 01:39:45;;;;;;;9.35;5.38;;;;;;;;;;5015906;28;20084;-80
2021/03/15 01:42:11;;;;;;;5.38;3.55;;;;;;;;;;5021774;28;20054;-80
2021/03/15 01:44:37;;;;;;;8.75;4.85;;;;;;;;;;5015691;28;20045;-80
2021/03/15 01:47:04;;;;;;;8.95;4.60;;;;;;;;;;5015221;28;20449;-80
2021/03/15 01:49:30;;;;;;;7.32;4.00;;;;;;;;;;5015110;28;20033;-79
2021/03/15 01:51:56;;;;;;;9.18;4.63;;;;;;;;;;5015662;28;20077;-80
2021/03/15 01:54:23;;;;;;;8.10;4.80;;;;;;;;;;5015466;28;20045;-79
2021/03/15 01:56:50;;;;;;;8.45;4.60;;;;;;;;;;5015356;28;20560;-80
2021/03/15 01:59:17;;;;;;;8.90;4.97;;;;;;;;;;5015307;28;20042;-80
2021/03/15 02:01:46;;;;;;;7.88;4.45;;;;;;;;;;5020886;28;20061;-79
2021/03/15 02:04:11;;;;;;;8.23;3.97;;;;;;;;;;5016041;28;20500;-79
2021/03/15 02:06:37;;;;;;;10.55;4.75;;;;;;;;;;5014787;28;20073;-79
2021/03/15 02:09:04;;;;;;;7.22;4.03;;;;;;;;;;5014556;28;20390;-79
2021/03/15 02:11:35;;;;;;;6.53;3.78;;;;;;;;;;5014993;28;20042;-80
2021/03/15 02:14:16;;;;;;;7.63;4.03;;;;;;;;;;5014408;28;20042;-80
2021/03/15 02:16:49;;;;;;;7.97;3.88;;;;;;;;;;5011652;28;20046;-80
2021/03/15 02:19:45;;;;;;;8.65;4.45;;;;;;;;;;5015172;28;20038;-79
2021/03/15 02:22:26;;;;;;;8.35;4.07;;;;;;;;;;5004737;28;20053;-80
2021/03/15 02:25:17;;;;;;;6.85;3.97;;;;;;;;;;5014261;28;20049;-79
2021/03/15 02:28:16;;;;;;;8.40;3.42;;;;;;;;;;5012685;28;20076;-80
2021/03/15 02:30:49;;;;;;;7.97;4.15;;;;;;;;;;5014860;28;20112;-80
2021/03/15 02:33:52;;;;;;;8.75;3.70;;;;;;;;;;5014194;28;20037;-80
2021/03/15 02:36:19;;;;;;;6.30;3.58;;;;;;;;;;5010768;28;20049;-79
2021/03/15 02:38:46;;;;;;;5.65;3.30;;;;;;;;;;5013994;28;20042;-79
2021/03/15 02:41:15;;;;;;;6.63;3.50;;;;;;;;;;4996876;28;20054;-80
2021/03/15 02:43:44;;;;;;;5.50;3.33;;;;;;;;;;5014216;28;20034;-79
2021/03/15 02:46:17;;;;;;;6.20;3.63;;;;;;;;;;5012141;28;20049;-80
2021/03/15 02:48:44;;;;;;;7.38;4.28;;;;;;;;;;5014309;28;20049;-79
2021/03/15 02:51:12;;;;;;;7.50;4.18;;;;;;;;;;5014064;28;20478;-80
2021/03/15 02:53:40;;;;;;;5.80;3.78;;;;;;;;;;5014056;28;20042;-79
2021/03/15 02:56:09;;;;;;;5.78;3.90;;;;;;;;;;5013325;28;20482;-79
2021/03/15 02:58:36;;;;;;;7.43;3.80;;;;;;;;;;5014730;28;20046;-79
2021/03/15 03:01:03;;;;;;;6.28;3.70;;;;;;;;;;5014635;28;20103;-80
2021/03/15 03:03:31;;;;;;;5.40;3.33;;;;;;;;;;5011569;28;20053;-80
2021/03/15 03:05:58;;;;;;;6.10;3.63;;;;;;;;;;5014249;28;20038;-80
2021/03/15 03:08:25;;;;;;;6.45;4.25;;;;;;;;;;5014686;28;20038;-79
2021/03/15 03:10:53;;;;;;;7.28;3.78;;;;;;;;;;5013957;28;20053;-79
2021/03/15 03:13:22;;;;;;;4.60;3.35;;;;;;;;;;5013508;28;20054;-78
2021/03/15 03:15:49;;;;;;;6.25;4.35;;;;;;;;;;5014210;28;20060;-80
2021/03/15 03:18:16;;;;;;;5.88;3.55;;;;;;;;;;5014351;28;20177;-80
2021/03/15 03:20:42;;;;;;;7.32;4.15;;;;;;;;;;5014623;28;20096;-80
2021/03/15 03:23:09;;;;;;;7.50;4.10;;;;;;;;;;5011365;28;20112;-80
2021/03/15 03:25:35;;;;;;;5.68;3.85;;;;;;;;;;5014268;28;20092;-80
2021/03/15 03:28:05;;;;;;;7.82;3.78;;;;;;;;;;5017286;28;20046;-80
2021/03/15 03:30:33;;;;;;;6.68;3.20;;;;;;;;;;5011958;28;20042;-80
2021/03/15 03:32:59;;;;;;;5.38;3.13;;;;;;;;;;5013562;28;20080;-81
2021/03/15 03:35:26;;;;;;;8.45;3.70;;;;;;;;;;5013778;28;20045;-80
2021/03/15 03:37:52;;;;;;;6.50;3.60;;;;;;;;;;5013794;28;20466;-81
2021/03/15 03:40:19;;;;;;;6.75;3.72;;;;;;;;;;5014752;28;20045;-81
2021/03/15 03:42:45;;;;;;;6.47;3.63;;;;;;;;;;5017163;28;20041;-78
2021/03/15 03:45:14;;;;;;;5.85;3.42;;;;;;;;;;5017389;28;20045;-81
2021/03/15 03:47:40;;;;;;;8.02;5.05;;;;;;;;;;5017655;28;20048;-80
2021/03/15 03:50:07;;;;;;;7.35;4.20;;;;;;;;;;5017792;28;20041;-81
2021/03/15 03:52:34;;;;;;;5.72;3.60;;;;;;;;;;5019607;28;20088;-80
2021/03/15 03:55:06;;;;;;;6.60;4.43;;;;;;;;;;5016906;28;20042;-80
2021/03/15 03:57:33;;;;;;;7.97;4.20;;;;;;;;;;5015334;28;20042;-80
2021/03/15 04:00:01;;;;;;;7.47;4.38;;;;;;;;;;5017539;28;20046;-80
2021/03/15 04:02:28;;;;;;;5.97;3.97;;;;;;;;;;5017306;28;20355;-80
2021/03/15 04:04:59;;;;;;;6.28;3.88;;;;;;;;;;5017417;28;20034;-80
2021/03/15 04:07:26;;;;;;;7.20;4.43;;;;;;;;;;5016921;28;20042;-81
2021/03/15 04:09:58;;;;;;;8.02;4.32;;;;;;;;;;5016974;28;20042;-81
2021/03/15 04:12:25;;;;;;;8.10;4.28;;;;;;;;;;5017317;28;20448;-80
2021/03/15 04:14:53;;;;;;;7.60;4.47;;;;;;;;;;5016545;28;20474;-80
2021/03/15 04:17:21;;;;;;;9.13;4.70;;;;;;;;;;5016823;28;20528;-80
2021/03/15 04:19:51;;;;;;;10.48;5.68;;;;;;;;;;5016852;28;20057;-79
2021/03/15 04:22:18;;;;;;;12.20;4.57;;;;;;;;;;5017288;28;20078;-80
2021/03/15 04:24:45;;;;;;;7.03;4.75;;;;;;;;;;5016245;28;20053;-79
2021/03/15 04:27:12;;;;;;;8.00;4.47;;;;;;;;;;5017078;28;20042;-80
2021/03/15 04:29:39;;;;;;;8.00;5.03;;;;;;;;;;5016846;28;20533;-80
2021/03/15 04:32:06;;;;;;;7.28;4.38;;;;;;;;;;5016335;28;20045;-80
2021/03/15 04:34:34;;;;;;;7.22;4.70;;;;;;;;;;5015964;28;20037;-80
2021/03/15 04:37:01;;;;;;;9.05;4.97;;;;;;;;;;5016502;28;20041;-80
2021/03/15 04:39:29;;;;;;;7.65;5.38;;;;;;;;;;5016092;28;20057;-80
2021/03/15 04:41:56;;;;;;;6.55;4.60;;;;;;;;;;5016095;28;20045;-79
2021/03/15 04:44:22;;;;;;;8.23;4.55;;;;;;;;;;5016396;28;20441;-80
2021/03/15 04:46:48;;;;;;;8.07;5.43;;;;;;;;;;5017152;28;20432;-80
2021/03/15 04:49:17;;;;;;;7.03;4.40;;;;;;;;;;5029726;28;20049;-80
2021/03/15 04:51:43;;;;;;;9.48;5.10;;;;;;;;;;5034727;28;20385;-79
2021/03/15 04:54:11;;;;;;;10.35;5.10;;;;;;;;;;5023109;28;20046;-81
2021/03/15 04:56:38;;;;;;;7.72;5.22;;;;;;;;;;5016676;28;20052;-80
2021/03/15 04:59:04;;;;;;;6.93;4.68;;;;;;;;;;5017065;28;20046;-81
2021/03/15 05:01:32;;;;;;;7.32;4.80;;;;;;;;;;5021729;28;20034;-81
2021/03/15 05:03:59;;;;;;;7.47;4.53;;;;;;;;;;5021810;28;20049;-79
2021/03/15 05:06:25;;;;;;;7.07;4.53;;;;;;;;;;5023259;28;20045;-80
2021/03/15 05:08:53;;;;;;;7.78;4.97;;;;;;;;;;5016087;28;20048;-80
2021/03/15 05:11:24;;;;;;;8.70;5.00;;;;;;;;;;5016091;28;20054;-81
2021/03/15 05:13:50;;;;;;;10.00;5.75;;;;;;;;;;5016181;28;20104;-80
2021/03/15 05:16:16;;;;;;;7.05;4.38;;;;;;;;;;5023308;28;20049;-80
2021/03/15 05:18:42;;;;;;;6.82;4.55;;;;;;;;;;5023067;28;20101;-80
2021/03/15 05:21:09;;;;;;;9.10;4.78;;;;;;;;;;5019038;28;20389;-81
2021/03/15 05:23:35;;;;;;;8.18;4.90;;;;;;;;;;5022306;28;20046;-81
2021/03/15 05:26:02;;;;;;;7.00;4.57;;;;;;;;;;5018433;28;20069;-80
2021/03/15 05:28:29;;;;;;;6.57;4.00;;;;;;;;;;5022636;28;20057;-80
2021/03/15 05:30:59;;;;;;;6.95;4.15;;;;;;;;;;5021442;28;20054;-81
2021/03/15 05:33:26;;;;;;;7.00;4.38;;;;;;;;;;5007772;28;20390;-80
2021/03/15 05:35:52;;;;;;;9.70;4.75;;;;;;;;;;5012620;28;20041;-81
2021/03/15 05:38:18;;;;;;;10.98;4.45;;;;;;;;;;5009658;28;20053;-81
2021/03/15 05:40:46;;;;;;;7.88;4.70;;;;;;;;;;4982257;28;20053;-81
2021/03/15 05:43:20;;;;;;;8.20;5.10;;;;;;;;;;5020451;28;20049;-81
2021/03/15 05:46:03;;;;;;;9.18;4.38;;;;;;;;;;5021770;28;20049;-81
2021/03/15 05:48:56;;;;;;;6.78;4.35;;;;;;;;;;5011633;28;20046;-83
2021/03/15 05:51:51;;;;;;;7.47;4.13;;;;;;;;;;5011887;28;20049;-82
2021/03/15 05:54:59;;;;;;;7.78;4.13;;;;;;;;;;5017238;28;20049;-81
2021/03/15 05:57:52;;;;;;;7.07;3.75;;;;;;;;;;5000737;28;20356;-80
2021/03/15 06:00:26;;;;;;;5.82;3.85;;;;;;;;;;5004387;28;20038;-80
2021/03/15 06:03:11;;;;;;;7.00;3.83;;;;;;;;;;5017684;28;20050;-80
2021/03/15 06:05:37;;;;;;;8.40;3.83;;;;;;;;;;5016874;28;20038;-81
2021/03/15 06:08:06;;;;;;;6.43;3.42;;;;;;;;;;5018132;28;20054;-80
2021/03/15 06:10:41;;;;;;;8.30;4.15;;;;;;;;;;5018438;28;20057;-81
2021/03/15 06:13:12;;;;;;;8.27;3.85;;;;;;;;;;5017726;28;20042;-81
2021/03/15 06:15:39;;;;;;;7.75;3.92;;;;;;;;;;5031000;28;20042;-80
2021/03/15 06:18:08;;;;;;;6.43;3.72;;;;;;;;;;5026769;28;20042;-81
2021/03/15 06:20:36;;;;;;;9.57;4.10;;;;;;;;;;5017636;28;20335;-81
2021/03/15 06:23:03;;;;;;;6.90;3.60;;;;;;;;;;5034414;28;20037;-83
2021/03/15 06:25:30;;;;;;;6.47;4.07;;;;;;;;;;5027798;28;20046;-82
2021/03/15 06:27:57;;;;;;;5.82;3.80;;;;;;;;;;5018923;28;20045;-81
2021/03/15 06:30:24;;;;;;;6.43;4.38;;;;;;;;;;5018626;28;20054;-82
2021/03/15 06:32:51;;;;;;;5.55;3.92;;;;;;;;;;5019151;28;20052;-81
2021/03/15 06:35:20;;;;;;;5.30;3.83;;;;;;;;;;5019087;28;20048;-81
2021/03/15 06:37:46;;;;;;;7.97;4.00;;;;;;;;;;4999956;28;20058;-81
2021/03/15 06:40:14;;;;;;;6.25;4.22;;;;;;;;;;5009551;28;20037;-82
2021/03/15 06:42:41;;;;;;;7.05;4.05;;;;;;;;;;5039561;28;20045;-81
2021/03/15 06:45:11;;;;;;;6.43;3.60;;;;;;;;;;5034775;28;20103;-82
2021/03/15 06:47:37;;;;;;;5.90;3.90;;;;;;;;;;5000200;28;20042;-81
2021/03/15 06:50:04;;;;;;;6.65;3.85;;;;;;;;;;5020059;28;20045;-81
2021/03/15 06:52:31;;;;;;;5.15;3.65;;;;;;;;;;5039453;28;20042;-82
2021/03/15 06:55:00;;;;;;;7.18;4.00;;;;;;;;;;5040214;28;20048;-82
2021/03/15 06:57:28;;;;;;;9.60;4.43;;;;;;;;;;5000426;28;20073;-81
2021/03/15 06:59:56;;;;;;;6.13;3.85;;;;;;;;;;5001635;28;20445;-81
2021/03/15 07:02:27;;;;;;;7.05;4.20;;;;;;;;;;5002065;28;20046;-81
2021/03/15 07:04:56;;;;;;;8.43;4.70;;;;;;;;;;5001318;28;20049;-80
2021/03/15 07:07:24;;;;;;;7.20;4.47;;;;;;;;;;5021514;28;20047;-81
2021/03/15 07:09:52;;;;;;;6.30;4.03;;;;;;;;;;5041280;28;20045;-81
2021/03/15 07:12:19;;;;;;;6.25;4.13;;;;;;;;;;5041698;28;20096;-80
2021/03/15 07:14:46;;;;;;;6.63;3.92;;;;;;;;;;5039146;28;20083;-81
2021/03/15 07:17:24;;;;;;;8.70;4.40;;;;;;;;;;5036097;28;20055;-81
2021/03/15 07:19:51;;;;;;;7.13;4.35;;;;;;;;;;5040702;28;20045;-81
2021/03/15 07:22:21;;;;;;;8.48;4.45;;;;;;;;;;5041333;28;20124;-80
2021/03/15 07:25:12;;;;;;;7.13;4.00;;;;;;;;;;5036254;28;20064;-81
2021/03/15 07:27:40;;;;;;;6.90;4.30;;;;;;;;;;5036381;28;20037;-80
2021/03/15 07:30:35;;;;;;;10.25;3.90;;;;;;;;;;5038007;28;20042;-80
2021/03/15 07:33:02;;;;;;;6.25;3.83;;;;;;;;;;5024631;28;20048;-80
2021/03/15 07:35:30;;;;;;;5.57;3.97;;;;;;;;;;5033629;28;20042;-79
2021/03/15 07:37:56;;;;;;;7.85;4.03;;;;;;;;;;5025485;28;20045;-81
2021/03/15 07:40:35;;;;;;;7.65;3.95;;;;;;;;;;5019333;28;20092;-81
2021/03/15 07:43:02;;;;;;;6.57;3.67;;;;;;;;;;5019237;28;20049;-80
2021/03/15 07:45:36;;;;;;;8.82;4.05;;;;;;;;;;5020266;28;20077;-81
2021/03/15 07:48:23;;;;;;;6.10;3.75;;;;;;;;;;5020192;28;20043;-80
2021/03/15 07:50:57;;;;;;;8.48;4.90;;;;;;;;;;5016947;28;20057;-81
2021/03/15 07:53:41;;;;;;;6.20;4.18;;;;;;;;;;5020980;28;20057;-81
2021/03/15 07:56:10;;;;;;;6.70;3.70;;;;;;;;;;5037285;28;20053;-81
2021/03/15 07:58:38;;;;;;;5.65;3.35;;;;;;;;;;5009777;28;20389;-81
2021/03/15 08:01:05;;;;;;;5.57;2.90;;;;;;;;;;5039903;28;20080;-80
2021/03/15 08:03:31;;;;;;;8.07;3.22;;;;;;;;;;5038409;28;20292;-80
2021/03/15 08:05:59;;;;;;;5.68;3.47;;;;;;;;;;5038928;28;20056;-81
2021/03/15 08:08:25;;;;;;;5.05;3.17;;;;;;;;;;5008882;28;20092;-80
2021/03/15 08:10:52;;;;;;;3.97;2.55;;;;;;;;;;5034645;28;20045;-80
2021/03/15 08:13:20;;;;;;;4.75;2.80;;;;;;;;;;5039226;28;20049;-80
2021/03/15 08:15:48;;;;;;;4.47;2.55;;;;;;;;;;5022301;28;20057;-80
2021/03/15 08:18:19;;;;;;;5.47;2.72;;;;;;;;;;5032288;28;20481;-80
2021/03/15 08:20:48;;;;;;;3.92;2.58;;;;;;;;;;5036415;28;20041;-80
2021/03/15 08:23:16;;;;;;;3.72;2.08;;;;;;;;;;5037905;28;20048;-80
2021/03/15 08:25:43;;;;;;;3.83;2.10;;;;;;;;;;5029386;28;20129;-80
2021/03/15 08:28:11;;;;;;;3.53;2.22;;;;;;;;;;5038929;28;20107;-80
2021/03/15 08:30:41;;;;;;;2.97;1.63;;;;;;;;;;5040053;28;20432;-80
2021/03/15 08:33:07;;;;;;;3.17;1.92;;;;;;;;;;5038985;28;20045;-80
2021/03/15 08:35:33;;;;;;;3.33;1.80;;;;;;;;;;5027809;28;20037;-79
2021/03/15 08:38:00;;;;;;;4.72;2.30;;;;;;;;;;5033428;28;20059;-80
2021/03/15 08:40:51;;;;;;;3.03;1.88;;;;;;;;;;5037727;28;20374;-80
2021/03/15 08:43:31;;;;;;;3.42;1.98;;;;;;;;;;5035207;28;20397;-80
2021/03/15 08:46:00;;;;;;;3.95;2.03;;;;;;;;;;5040517;28;20052;-80
2021/03/15 08:48:52;;;;;;;3.80;1.60;;;;;;;;;;5043421;28;20059;-80
2021/03/15 08:51:44;;;;;;;3.10;1.70;;;;;;;;;;5041165;28;20045;-80
2021/03/15 08:54:10;;;;;;;5.47;1.92;;;;;;;;;;5031617;28;20482;-80
2021/03/15 08:56:42;;;;;;;2.78;1.50;;;;;;;;;;5022824;28;20065;-81
2021/03/15 08:59:10;;;;;;;2.85;1.95;;;;;;;;;;5035314;28;20045;-79
2021/03/15 09:01:51;;;;;;;3.45;1.80;;;;;;;;;;5041592;28;20041;-81
2021/03/15 09:04:31;;;;;;;5.57;3.55;;;;;;;;;;5041195;28;20052;-80
2021/03/15 09:06:57;;;;;;;4.10;2.03;;;;;;;;;;5041309;28;20171;-80
2021/03/15 09:09:28;;;;;;;2.65;1.65;;;;;;;;;;5031129;28;20544;-80
2021/03/15 09:11:55;;;;;;;2.90;1.70;;;;;;;;;;5036120;28;20042;-80
2021/03/15 09:14:53;;;;;;;3.70;1.92;;;;;;;;;;5039108;28;20045;-80
2021/03/15 09:17:33;;;;;;;6.30;2.88;;;;;;;;;;5031365;28;20045;-80
2021/03/15 09:20:19;;;;;;;4.22;2.25;;;;;;;;;;5036387;28;20045;-79
2021/03/15 09:22:45;;;;;;;3.35;1.75;;;;;;;;;;5034644;28;20037;-80
2021/03/15 09:25:19;;;;;;;3.33;1.90;;;;;;;;;;5036039;28;20037;-80
2021/03/15 09:27:45;;;;;;;3.53;1.90;;;;;;;;;;5038758;28;20108;-81
2021/03/15 09:30:14;;;;;;;2.53;1.50;;;;;;;;;;5021590;28;20045;-80
2021/03/15 09:32:42;;;;;;;2.20;1.20;;;;;;;;;;5041140;28;20470;-80
2021/03/15 09:35:28;;;;;;;2.90;1.33;;;;;;;;;;5032596;28;20076;-81
2021/03/15 09:37:57;;;;;;;1.92;1.30;;;;;;;;;;5033136;28;20119;-79
2021/03/15 09:40:25;;;;;;;2.45;1.40;;;;;;;;;;5030915;28;20041;-80
2021/03/15 09:42:52;;;;;;;3.45;1.30;;;;;;;;;;5028411;28;20113;-80
2021/03/15 09:45:29;;;;;;;3.08;1.08;;;;;;;;;;5040736;28;20095;-80
2021/03/15 09:47:57;;;;;;;1.67;1.05;;;;;;;;;;5040475;28;20059;-80
2021/03/15 09:50:24;;;;;;;1.70;1.00;;;;;;;;;;5020896;28;20072;-80
2021/03/15 09:52:50;;;;;;;1.85;1.10;;;;;;;;;;5029976;28;20034;-79
2021/03/15 09:55:18;;;;;;;1.48;1.05;;;;;;;;;;5039429;28;20045;-81
2021/03/15 09:57:44;;;;;;;3.03;1.10;;;;;;;;;;5015049;28;20100;-80
2021/03/15 10:00:13;;;;;;;1.10;0.80;;;;;;;;;;5001865;28;20046;-80
2021/03/15 10:02:39;;;;;;;3.10;1.10;;;;;;;;;;5025246;28;20041;-79
2021/03/15 10:05:08;;;;;;;1.67;0.85;;;;;;;;;;5039691;28;20487;-79
2021/03/15 10:07:39;;;;;;;3.70;1.98;;;;;;;;;;5039534;28;20052;-80
2021/03/15 10:10:13;;;;;;;2.55;1.20;;;;;;;;;;5040128;28;20172;-79
2021/03/15 10:12:39;;;;;;;3.75;1.02;;;;;;;;;;5039069;28;20042;-81
2021/03/15 10:15:08;;;;;;;1.98;1.13;;;;;;;;;;5025735;28;20048;-84
2021/03/15 10:17:34;;;;;;;0.80;0.70;;;;;;;;;;5022483;28;20045;-79
2021/03/15 10:20:00;;;;;;;2.28;1.10;;;;;;;;;;5020521;28;20042;-80
2021/03/15 10:22:27;;;;;;;1.15;0.90;;;;;;;;;;5006257;28;20053;-80
2021/03/15 10:24:53;;;;;;;1.40;0.90;;;;;;;;;;5039544;28;20048;-79
2021/03/15 10:27:21;;;;;;;1.67;1.00;;;;;;;;;;5039457;28;20508;-80
2021/03/15 10:29:52;;;;;;;2.13;1.02;;;;;;;;;;5038619;28;20067;-81
2021/03/15 10:32:20;;;;;;;1.80;1.27;;;;;;;;;;5039377;28;20041;-79
2021/03/15 10:34:51;;;;;;;5.20;2.38;;;;;;;;;;5041071;28;20140;-83
2021/03/15 10:37:17;;;;;;;2.13;1.23;;;;;;;;;;5041508;28;20045;-82
2021/03/15 10:39:45;;;;;;;2.75;1.52;;;;;;;;;;5040780;28;20075;-80
2021/03/15 10:42:11;;;;;;;1.75;1.00;;;;;;;;;;5040365;28;20052;-80
2021/03/15 10:44:37;;;;;;;1.92;1.25;;;;;;;;;;5040267;28;20478;-81
2021/03/15 10:47:03;;;;;;;1.10;0.73;;;;;;;;;;5039596;28;20441;-80
2021/03/15 10:49:32;;;;;;;1.75;1.30;;;;;;;;;;5039446;28;20037;-81
2021/03/15 10:51:58;;;;;;;3.60;1.35;;;;;;;;;;5022869;28;20041;-81
2021/03/15 10:54:32;;;;;;;2.13;1.30;;;;;;;;;;5021313;28;20073;-80
2021/03/15 10:57:15;;;;;;;2.08;1.40;;;;;;;;;;5020911;28;20045;-81
2021/03/15 10:59:42;;;;;;;3.17;1.80;;;;;;;;;;5020642;28;20471;-81
2021/03/15 11:02:08;;;;;;;3.25;2.00;;;;;;;;;;5020681;28;20060;-82
2021/03/15 11:04:35;;;;;;;2.08;1.52;;;;;;;;;;5021124;28;20046;-81
2021/03/15 11:07:17;;;;;;;3.58;2.08;;;;;;;;;;5020339;28;20128;-80
2021/03/15 11:09:52;;;;;;;4.07;1.85;;;;;;;;;;5019694;28;20044;-80
2021/03/15 11:12:31;;;;;;;2.80;1.70;;;;;;;;;;5027739;28;20037;-81
2021/03/15 11:15:17;;;;;;;2.40;1.45;;;;;;;;;;5038528;28;20640;-81
2021/03/15 11:17:57;;;;;;;1.83;1.20;;;;;;;;;;5038463;28;20045;-81
2021/03/15 11:20:34;;;;;;;1.67;1.00;;;;;;;;;;5038155;28;20042;-81
2021/03/15 11:23:00;;;;;;;2.53;1.10;;;;;;;;;;5038742;28;20037;-81
2021/03/15 11:25:28;;;;;;;1.38;1.13;;;;;;;;;;5037245;28;20064;-81
2021/03/15 11:28:03;;;;;;;2.42;1.33;;;;;;;;;;5036882;28;20045;-81
2021/03/15 11:30:29;;;;;;;2.08;1.20;;;;;;;;;;5038235;28;20335;-80
2021/03/15 11:33:00;;;;;;;1.70;1.08;;;;;;;;;;5037384;28;20044;-81
2021/03/15 11:35:26;;;;;;;1.55;1.00;;;;;;;;;;5038104;28;20059;-80
2021/03/15 11:37:53;;;;;;;1.30;0.80;;;;;;;;;;5035645;28;20045;-80
2021/03/15 11:40:30;;;;;;;1.38;1.05;;;;;;;;;;5035189;28;20064;-81
2021/03/15 11:42:58;;;;;;;1.80;1.00;;;;;;;;;;5035187;28;20060;-79
2021/03/15 11:45:25;;;;;;;3.58;0.93;;;;;;;;;;5034741;28;20500;-79
2021/03/15 11:47:51;;;;;;;2.15;1.25;;;;;;;;;;5018573;28;20053;-79
2021/03/15 11:50:17;;;;;;;1.50;0.93;;;;;;;;;;5017867;28;20042;-80
2021/03/15 11:52:43;;;;;;;1.65;0.95;;;;;;;;;;5019124;28;20048;-79
2021/03/15 11:55:11;;;;;;;1.33;0.85;;;;;;;;;;5018208;28;20057;-79
2021/03/15 11:57:37;;;;;;;1.38;0.80;;;;;;;;;;5019951;28;20037;-85
2021/03/15 12:00:05;;;;;;;1.35;0.85;;;;;;;;;;5020559;28;20049;-80
2021/03/15 12:02:32;;;;;;;1.52;0.93;;;;;;;;;;5020353;28;20119;-80
2021/03/15 12:04:58;;;;;;;0.98;0.73;;;;;;;;;;5021019;28;20050;-80
2021/03/15 12:07:24;;;;;;;1.02;0.70;;;;;;;;;;5021914;28;20135;-80
2021/03/15 12:09:50;;;;;;;4.38;2.25;;;;;;;;;;5022137;28;20474;-79
2021/03/15 12:12:16;;;;;;;1.15;0.80;;;;;;;;;;5019913;28;20475;-79
2021/03/15 12:14:42;;;;;;;1.73;1.08;;;;;;;;;;5025742;28;20038;-79
2021/03/15 12:17:10;;;;;;;1.60;0.90;;;;;;;;;;5026010;28;20052;-81
2021/03/15 12:19:36;;;;;;;2.17;1.15;;;;;;;;;;5026361;28;20044;-79
2021/03/15 12:22:02;;;;;;;2.83;1.27;;;;;;;;;;5026696;28;20069;-80
2021/03/15 12:24:28;;;;;;;1.88;1.20;;;;;;;;;;5023293;28;20081;-80
2021/03/15 12:26:54;;;;;;;1.38;1.00;;;;;;;;;;5022147;28;20053;-81
2021/03/15 12:29:21;;;;;;;1.58;1.10;;;;;;;;;;5023109;28;20125;-82
2021/03/15 12:31:47;;;;;;;2.00;1.30;;;;;;;;;;5024232;28;20076;-82
2021/03/15 12:34:14;;;;;;;2.00;1.20;;;;;;;;;;5022978;28;20045;-84
2021/03/15 12:36:40;;;;;;;2.40;1.80;;;;;;;;;;5022351;28;20057;-82
2021/03/15 12:39:06;;;;;;;1.70;1.23;;;;;;;;;;5020894;28;20053;-80
2021/03/15 12:41:32;;;;;;;2.50;1.40;;;;;;;;;;5017199;28;20074;-81
2021/03/15 12:43:58;;;;;;;2.53;1.50;;;;;;;;;;5021130;28;20041;-81
2021/03/15 12:46:25;;;;;;;1.95;1.33;;;;;;;;;;5021277;28;20433;-82
2021/03/15 12:48:51;;;;;;;3.40;1.50;;;;;;;;;;5023363;28;20049;-81
2021/03/15 12:51:18;;;;;;;1.73;0.80;;;;;;;;;;5022485;28;20049;-81
2021/03/15 12:53:44;;;;;;;2.97;1.90;;;;;;;;;;5022633;28;20040;-81
2021/03/15 12:56:10;;;;;;;2.60;1.70;;;;;;;;;;5021757;28;20042;-82
2021/03/15 12:58:36;;;;;;;3.47;1.60;;;;;;;;;;5008261;28;20054;-81
2021/03/15 13:01:02;;;;;;;2.38;1.50;;;;;;;;;;5025880;28;20034;-82
2021/03/15 13:03:28;;;;;;;2.72;1.58;;;;;;;;;;5029433;28;20053;-81
2021/03/15 13:05:54;;;;;;;2.90;1.90;;;;;;;;;;5029302;28;20069;-81
2021/03/15 13:08:21;;;;;;;3.53;1.38;;;;;;;;;;5029956;28;20101;-82
2021/03/15 13:10:47;;;;;;;3.78;1.88;;;;;;;;;;5026272;28;20037;-81
2021/03/15 13:13:13;;;;;;;2.88;1.33;;;;;;;;;;5024353;28;20041;-82
2021/03/15 13:15:39;;;;;;;3.20;1.70;;;;;;;;;;5023722;28;20064;-82
2021/03/15 13:18:05;;;;;;;5.53;1.58;;;;;;;;;;5023657;28;20049;-81
2021/03/15 13:20:31;;;;;;;3.35;1.77;;;;;;;;;;5023450;28;20064;-81
2021/03/15 13:22:57;;;;;;;3.78;1.65;;;;;;;;;;5025864;28;20042;-82
2021/03/15 13:25:24;;;;;;;2.67;1.52;;;;;;;;;;5019438;28;20045;-80
2021/03/15 13:27:50;;;;;;;2.78;1.38;;;;;;;;;;5018809;28;20057;-82
2021/03/15 13:30:17;;;;;;;3.80;1.70;;;;;;;;;;5023274;28;20050;-81
2021/03/15 13:32:44;;;;;;;5.93;3.67;;;;;;;;;;5015455;28;20038;-82
2021/03/15 13:35:11;;;;;;;3.30;2.38;;;;;;;;;;5019724;28;20049;-82
2021/03/15 13:37:39;;;;;;;5.85;2.83;;;;;;;;;;5035193;28;20067;-83
2021/03/15 13:40:07;;;;;;;3.70;1.50;;;;;;;;;;5025841;28;20120;-81
2021/03/15 13:42:33;;;;;;;1.98;1.27;;;;;;;;;;5039261;28;20033;-81
2021/03/15 13:44:59;;;;;;;2.83;1.58;;;;;;;;;;5038966;28;20054;-81
2021/03/15 13:47:25;;;;;;;3.60;2.00;;;;;;;;;;5040023;28;20104;-82
2021/03/15 13:49:51;;;;;;;2.13;1.30;;;;;;;;;;5040276;28;20107;-82
2021/03/15 13:52:17;;;;;;;2.05;1.25;;;;;;;;;;5041732;28;20045;-80
2021/03/15 13:54:44;;;;;;;6.32;3.78;;;;;;;;;;5045724;28;20092;-80
2021/03/15 13:57:10;;;;;;;3.50;1.70;;;;;;;;;;5036938;28;20069;-80
2021/03/15 13:59:37;;;;;;;2.08;1.20;;;;;;;;;;5033253;28;20052;-81
2021/03/15 14:02:03;;;;;;;1.50;1.05;;;;;;;;;;5047821;28;20052;-80
2021/03/15 14:04:29;;;;;;;2.03;1.27;;;;;;;;;;5030082;28;20056;-80
2021/03/15 14:06:55;;;;;;;1.83;1.00;;;;;;;;;;5051244;28;20049;-80
2021/03/15 14:09:21;;;;;;;1.63;1.08;;;;;;;;;;5053076;28;20050;-79
2021/03/15 14:11:47;;;;;;;2.67;1.48;;;;;;;;;;5052663;28;20110;-80
2021/03/15 14:14:13;;;;;;;2.20;1.30;;;;;;;;;;5053097;28;20065;-79
2021/03/15 14:16:40;;;;;;;1.92;1.17;;;;;;;;;;5053197;28;20049;-80
2021/03/15 14:19:06;;;;;;;1.73;1.27;;;;;;;;;;5052631;28;20031;-82
2021/03/15 14:21:32;;;;;;;2.42;1.23;;;;;;;;;;5035798;28;20105;-80
2021/03/15 14:23:58;;;;;;;2.08;1.33;;;;;;;;;;5034996;28;20099;-79
2021/03/15 14:26:24;;;;;;;1.50;1.13;;;;;;;;;;5048576;28;20045;-80
2021/03/15 14:28:50;;;;;;;0.85;0.70;;;;;;;;;;5049416;28;20034;-79
2021/03/15 14:31:16;;;;;;;2.00;1.33;;;;;;;;;;5051496;28;20550;-80
2021/03/15 14:33:43;;;;;;;2.55;1.80;;;;;;;;;;5047509;28;20037;-79
2021/03/15 14:36:09;;;;;;;1.45;1.00;;;;;;;;;;5053202;28;20050;-80
2021/03/15 14:38:35;;;;;;;1.88;1.30;;;;;;;;;;5052823;28;20041;-80
2021/03/15 14:41:02;;;;;;;2.05;1.30;;;;;;;;;;5046302;28;20052;-79
2021/03/15 14:43:28;;;;;;;1.65;1.15;;;;;;;;;;5040905;28;20095;-80
2021/03/15 14:45:54;;;;;;;2.45;1.40;;;;;;;;;;5037286;28;20049;-81
2021/03/15 14:48:20;;;;;;;2.17;1.10;;;;;;;;;;5038133;28;20059;-80
2021/03/15 14:50:49;;;;;;;2.55;1.98;;;;;;;;;;5036492;28;20060;-80
2021/03/15 14:53:15;;;;;;;1.80;1.25;;;;;;;;;;5033648;28;20045;-79
2021/03/15 14:55:41;;;;;;;2.72;1.42;;;;;;;;;;5037135;28;20041;-80